sensor_id;sensor_type;location;lat;lon;timestamp;P1;durP1;ratioP1;P2;durP2;ratioP2
47481;SDS011;33219;47.410;9.730;2023-04-01T00:00:52;1.60;;;0.78;;
47481;SDS011;33219;47.410;9.730;2023-04-01T00:03:21;3.08;;;0.88;;
47481;SDS011;33219;47.410;9.730;2023-04-01T00:05:51;1.62;;;0.88;;
47481;SDS011;33219;47.410;9.730;2023-04-01T00:08:19;1.07;;;0.60;;
47481;SDS011;33219;47.410;9.730;2023-04-01T00:10:47;2.67;;;0.70;;
47481;SDS011;33219;47.410;9.730;2023-04-01T00:13:14;1.37;;;0.68;;
47481;SDS011;33219;47.410;9.730;2023-04-01T00:15:42;1.82;;;0.60;;
47481;SDS011;33219;47.410;9.730;2023-04-01T00:18:10;1.98;;;0.70;;
47481;SDS011;33219;47.410;9.730;2023-04-01T00:20:42;1.87;;;0.70;;
47481;SDS011;33219;47.410;9.730;2023-04-01T00:23:12;1.00;;;0.40;;
47481;SDS011;33219;47.410;9.730;2023-04-01T00:25:40;2.50;;;0.68;;
47481;SDS011;33219;47.410;9.730;2023-04-01T00:28:08;1.40;;;0.50;;
47481;SDS011;33219;47.410;9.730;2023-04-01T00:30:36;1.20;;;0.55;;
47481;SDS011;33219;47.410;9.730;2023-04-01T00:33:04;1.65;;;0.60;;
47481;SDS011;33219;47.410;9.730;2023-04-01T00:35:32;0.75;;;0.30;;
47481;SDS011;33219;47.410;9.730;2023-04-01T00:38:00;1.30;;;0.37;;
47481;SDS011;33219;47.410;9.730;2023-04-01T00:40:31;0.70;;;0.40;;
47481;SDS011;33219;47.410;9.730;2023-04-01T00:42:59;2.10;;;0.50;;
47481;SDS011;33219;47.410;9.730;2023-04-01T00:45:31;3.00;;;1.20;;
47481;SDS011;33219;47.410;9.730;2023-04-01T00:48:02;1.55;;;0.53;;
47481;SDS011;33219;47.410;9.730;2023-04-01T00:50:34;1.90;;;0.70;;
47481;SDS011;33219;47.410;9.730;2023-04-01T00:53:03;1.75;;;0.62;;
47481;SDS011;33219;47.410;9.730;2023-04-01T00:55:35;1.45;;;0.75;;
47481;SDS011;33219;47.410;9.730;2023-04-01T00:58:05;1.45;;;0.57;;
47481;SDS011;33219;47.410;9.730;2023-04-01T01:00:35;1.05;;;0.40;;
47481;SDS011;33219;47.410;9.730;2023-04-01T01:03:04;0.82;;;0.40;;
47481;SDS011;33219;47.410;9.730;2023-04-01T01:05:38;0.20;;;0.20;;
47481;SDS011;33219;47.410;9.730;2023-04-01T01:08:10;0.85;;;0.47;;
47481;SDS011;33219;47.410;9.730;2023-04-01T01:10:42;0.93;;;0.50;;
47481;SDS011;33219;47.410;9.730;2023-04-01T01:13:18;1.57;;;0.50;;
47481;SDS011;33219;47.410;9.730;2023-04-01T01:16:06;1.02;;;0.47;;
47481;SDS011;33219;47.410;9.730;2023-04-01T01:18:53;1.60;;;0.60;;
47481;SDS011;33219;47.410;9.730;2023-04-01T01:21:27;1.75;;;0.40;;
47481;SDS011;33219;47.410;9.730;2023-04-01T01:29:27;0.65;;;0.33;;
47481;SDS011;33219;47.410;9.730;2023-04-01T01:38:04;1.50;;;0.50;;
47481;SDS011;33219;47.410;9.730;2023-04-01T01:40:33;0.80;;;0.40;;
47481;SDS011;33219;47.410;9.730;2023-04-01T01:43:06;1.42;;;0.60;;
47481;SDS011;33219;47.410;9.730;2023-04-01T01:45:38;0.78;;;0.40;;
47481;SDS011;33219;47.410;9.730;2023-04-01T01:48:07;0.30;;;0.30;;
47481;SDS011;33219;47.410;9.730;2023-04-01T01:50:37;0.85;;;0.40;;
47481;SDS011;33219;47.410;9.730;2023-04-01T01:53:08;1.35;;;0.57;;
47481;SDS011;33219;47.410;9.730;2023-04-01T01:55:38;0.85;;;0.40;;
47481;SDS011;33219;47.410;9.730;2023-04-01T02:00:59;1.67;;;0.50;;
47481;SDS011;33219;47.410;9.730;2023-04-01T02:03:29;1.62;;;0.23;;
47481;SDS011;33219;47.410;9.730;2023-04-01T02:05:59;0.53;;;0.33;;
47481;SDS011;33219;47.410;9.730;2023-04-01T02:08:30;0.55;;;0.42;;
47481;SDS011;33219;47.410;9.730;2023-04-01T02:11:05;0.60;;;0.30;;
47481;SDS011;33219;47.410;9.730;2023-04-01T02:13:33;0.95;;;0.30;;
47481;SDS011;33219;47.410;9.730;2023-04-01T02:16:15;0.90;;;0.50;;
47481;SDS011;33219;47.410;9.730;2023-04-01T02:18:46;0.35;;;0.20;;
47481;SDS011;33219;47.410;9.730;2023-04-01T02:21:17;0.72;;;0.37;;
47481;SDS011;33219;47.410;9.730;2023-04-01T02:23:47;1.60;;;0.55;;
47481;SDS011;33219;47.410;9.730;2023-04-01T02:26:16;1.52;;;0.50;;
47481;SDS011;33219;47.410;9.730;2023-04-01T02:28:45;1.15;;;0.57;;
47481;SDS011;33219;47.410;9.730;2023-04-01T02:31:15;1.42;;;0.30;;
47481;SDS011;33219;47.410;9.730;2023-04-01T02:33:43;0.80;;;0.60;;
47481;SDS011;33219;47.410;9.730;2023-04-01T02:36:14;1.75;;;0.55;;
47481;SDS011;33219;47.410;9.730;2023-04-01T02:38:43;0.88;;;0.50;;
47481;SDS011;33219;47.410;9.730;2023-04-01T02:41:13;1.12;;;0.40;;
47481;SDS011;33219;47.410;9.730;2023-04-01T02:43:40;0.65;;;0.42;;
47481;SDS011;33219;47.410;9.730;2023-04-01T02:46:08;2.30;;;0.42;;
47481;SDS011;33219;47.410;9.730;2023-04-01T02:48:36;1.90;;;0.50;;
47481;SDS011;33219;47.410;9.730;2023-04-01T02:51:03;1.42;;;0.55;;
47481;SDS011;33219;47.410;9.730;2023-04-01T02:53:31;0.78;;;0.57;;
47481;SDS011;33219;47.410;9.730;2023-04-01T02:55:59;0.75;;;0.50;;
47481;SDS011;33219;47.410;9.730;2023-04-01T02:58:26;1.80;;;0.53;;
47481;SDS011;33219;47.410;9.730;2023-04-01T03:00:54;0.55;;;0.50;;
47481;SDS011;33219;47.410;9.730;2023-04-01T03:03:21;3.25;;;0.50;;
47481;SDS011;33219;47.410;9.730;2023-04-01T03:05:49;0.68;;;0.33;;
47481;SDS011;33219;47.410;9.730;2023-04-01T03:08:17;1.30;;;0.40;;
47481;SDS011;33219;47.410;9.730;2023-04-01T03:10:45;0.57;;;0.28;;
47481;SDS011;33219;47.410;9.730;2023-04-01T03:13:12;2.33;;;0.50;;
47481;SDS011;33219;47.410;9.730;2023-04-01T03:15:40;1.45;;;0.50;;
47481;SDS011;33219;47.410;9.730;2023-04-01T03:18:08;0.75;;;0.45;;
47481;SDS011;33219;47.410;9.730;2023-04-01T03:20:35;1.15;;;0.65;;
47481;SDS011;33219;47.410;9.730;2023-04-01T03:23:03;2.65;;;0.55;;
47481;SDS011;33219;47.410;9.730;2023-04-01T03:25:30;1.35;;;0.40;;
47481;SDS011;33219;47.410;9.730;2023-04-01T03:27:59;0.95;;;0.30;;
47481;SDS011;33219;47.410;9.730;2023-04-01T03:30:26;1.02;;;0.30;;
47481;SDS011;33219;47.410;9.730;2023-04-01T03:32:56;0.90;;;0.40;;
47481;SDS011;33219;47.410;9.730;2023-04-01T03:35:25;2.08;;;0.40;;
47481;SDS011;33219;47.410;9.730;2023-04-01T03:37:53;2.72;;;0.40;;
47481;SDS011;33219;47.410;9.730;2023-04-01T03:40:21;3.27;;;0.50;;
47481;SDS011;33219;47.410;9.730;2023-04-01T03:42:49;0.88;;;0.47;;
47481;SDS011;33219;47.410;9.730;2023-04-01T03:45:17;0.70;;;0.40;;
47481;SDS011;33219;47.410;9.730;2023-04-01T03:47:45;1.37;;;0.42;;
47481;SDS011;33219;47.410;9.730;2023-04-01T03:50:13;1.40;;;0.40;;
47481;SDS011;33219;47.410;9.730;2023-04-01T03:52:40;1.17;;;0.50;;
47481;SDS011;33219;47.410;9.730;2023-04-01T03:55:08;0.33;;;0.30;;
47481;SDS011;33219;47.410;9.730;2023-04-01T03:57:36;1.90;;;0.60;;
47481;SDS011;33219;47.410;9.730;2023-04-01T04:00:04;0.75;;;0.40;;
47481;SDS011;33219;47.410;9.730;2023-04-01T04:02:32;1.55;;;0.37;;
47481;SDS011;33219;47.410;9.730;2023-04-01T04:04:59;1.65;;;0.40;;
47481;SDS011;33219;47.410;9.730;2023-04-01T04:07:27;1.52;;;0.53;;
47481;SDS011;33219;47.410;9.730;2023-04-01T04:09:55;2.30;;;1.17;;
47481;SDS011;33219;47.410;9.730;2023-04-01T04:12:22;1.77;;;0.72;;
47481;SDS011;33219;47.410;9.730;2023-04-01T04:14:50;1.70;;;0.50;;
47481;SDS011;33219;47.410;9.730;2023-04-01T04:17:18;0.95;;;0.65;;
47481;SDS011;33219;47.410;9.730;2023-04-01T04:19:45;2.55;;;1.20;;
47481;SDS011;33219;47.410;9.730;2023-04-01T04:22:13;2.90;;;1.30;;
47481;SDS011;33219;47.410;9.730;2023-04-01T04:24:40;1.72;;;0.80;;
47481;SDS011;33219;47.410;9.730;2023-04-01T04:27:08;1.67;;;0.50;;
47481;SDS011;33219;47.410;9.730;2023-04-01T04:29:35;1.02;;;0.40;;
47481;SDS011;33219;47.410;9.730;2023-04-01T04:32:03;2.05;;;0.60;;
47481;SDS011;33219;47.410;9.730;2023-04-01T04:34:31;1.10;;;0.75;;
47481;SDS011;33219;47.410;9.730;2023-04-01T04:36:59;1.67;;;0.70;;
47481;SDS011;33219;47.410;9.730;2023-04-01T04:39:26;2.52;;;1.05;;
47481;SDS011;33219;47.410;9.730;2023-04-01T04:41:54;2.42;;;1.27;;
47481;SDS011;33219;47.410;9.730;2023-04-01T04:44:22;2.05;;;1.00;;
47481;SDS011;33219;47.410;9.730;2023-04-01T04:46:49;2.65;;;1.05;;
47481;SDS011;33219;47.410;9.730;2023-04-01T04:49:17;1.82;;;0.90;;
47481;SDS011;33219;47.410;9.730;2023-04-01T04:51:45;2.12;;;0.90;;
47481;SDS011;33219;47.410;9.730;2023-04-01T04:54:12;2.50;;;1.55;;
47481;SDS011;33219;47.410;9.730;2023-04-01T04:56:44;3.85;;;2.08;;
47481;SDS011;33219;47.410;9.730;2023-04-01T04:59:09;2.67;;;1.70;;
47481;SDS011;33219;47.410;9.730;2023-04-01T05:01:38;3.80;;;1.50;;
47481;SDS011;33219;47.410;9.730;2023-04-01T05:04:06;3.27;;;1.70;;
47481;SDS011;33219;47.410;9.730;2023-04-01T05:06:33;4.00;;;1.37;;
47481;SDS011;33219;47.410;9.730;2023-04-01T05:09:01;4.50;;;2.10;;
47481;SDS011;33219;47.410;9.730;2023-04-01T05:11:29;3.90;;;2.33;;
47481;SDS011;33219;47.410;9.730;2023-04-01T05:13:56;4.22;;;1.90;;
47481;SDS011;33219;47.410;9.730;2023-04-01T05:16:24;4.22;;;1.82;;
47481;SDS011;33219;47.410;9.730;2023-04-01T05:18:51;3.00;;;1.10;;
47481;SDS011;33219;47.410;9.730;2023-04-01T05:21:19;2.52;;;1.10;;
47481;SDS011;33219;47.410;9.730;2023-04-01T05:23:47;3.27;;;2.10;;
47481;SDS011;33219;47.410;9.730;2023-04-01T05:26:14;3.05;;;1.60;;
47481;SDS011;33219;47.410;9.730;2023-04-01T05:28:42;13.65;;;1.62;;
47481;SDS011;33219;47.410;9.730;2023-04-01T05:31:10;2.95;;;1.70;;
47481;SDS011;33219;47.410;9.730;2023-04-01T05:33:38;1.72;;;1.20;;
47481;SDS011;33219;47.410;9.730;2023-04-01T05:36:09;1.67;;;1.05;;
47481;SDS011;33219;47.410;9.730;2023-04-01T05:38:38;1.70;;;1.22;;
47481;SDS011;33219;47.410;9.730;2023-04-01T05:41:08;2.20;;;1.17;;
47481;SDS011;33219;47.410;9.730;2023-04-01T05:43:36;2.33;;;1.20;;
47481;SDS011;33219;47.410;9.730;2023-04-01T05:46:04;1.25;;;0.68;;
47481;SDS011;33219;47.410;9.730;2023-04-01T05:48:33;1.72;;;0.85;;
47481;SDS011;33219;47.410;9.730;2023-04-01T05:51:01;1.22;;;0.93;;
47481;SDS011;33219;47.410;9.730;2023-04-01T05:53:29;4.35;;;1.10;;
47481;SDS011;33219;47.410;9.730;2023-04-01T05:55:56;2.45;;;1.05;;
47481;SDS011;33219;47.410;9.730;2023-04-01T05:58:26;1.32;;;1.00;;
47481;SDS011;33219;47.410;9.730;2023-04-01T06:00:59;1.62;;;0.90;;
47481;SDS011;33219;47.410;9.730;2023-04-01T06:03:34;2.20;;;0.70;;
47481;SDS011;33219;47.410;9.730;2023-04-01T06:05:58;1.45;;;0.70;;
47481;SDS011;33219;47.410;9.730;2023-04-01T06:08:27;2.20;;;0.70;;
47481;SDS011;33219;47.410;9.730;2023-04-01T06:19:04;1.30;;;0.88;;
47481;SDS011;33219;47.410;9.730;2023-04-01T06:27:28;2.30;;;0.85;;
47481;SDS011;33219;47.410;9.730;2023-04-01T06:29:58;1.45;;;1.00;;
47481;SDS011;33219;47.410;9.730;2023-04-01T06:32:38;2.02;;;1.12;;
47481;SDS011;33219;47.410;9.730;2023-04-01T06:35:15;2.83;;;1.30;;
47481;SDS011;33219;47.410;9.730;2023-04-01T06:41:21;2.30;;;0.88;;
47481;SDS011;33219;47.410;9.730;2023-04-01T06:44:14;1.55;;;0.80;;
47481;SDS011;33219;47.410;9.730;2023-04-01T06:46:55;1.85;;;1.10;;
47481;SDS011;33219;47.410;9.730;2023-04-01T06:54:49;0.90;;;0.53;;
47481;SDS011;33219;47.410;9.730;2023-04-01T07:00:03;1.52;;;0.50;;
47481;SDS011;33219;47.410;9.730;2023-04-01T07:02:37;0.88;;;0.53;;
47481;SDS011;33219;47.410;9.730;2023-04-01T07:05:03;0.62;;;0.62;;
47481;SDS011;33219;47.410;9.730;2023-04-01T07:07:55;0.53;;;0.40;;
47481;SDS011;33219;47.410;9.730;2023-04-01T07:10:56;1.42;;;0.40;;
47481;SDS011;33219;47.410;9.730;2023-04-01T07:13:14;0.50;;;0.50;;
47481;SDS011;33219;47.410;9.730;2023-04-01T07:15:50;0.80;;;0.40;;
47481;SDS011;33219;47.410;9.730;2023-04-01T07:18:22;2.20;;;0.40;;
47481;SDS011;33219;47.410;9.730;2023-04-01T07:20:50;1.92;;;0.80;;
47481;SDS011;33219;47.410;9.730;2023-04-01T07:23:21;0.37;;;0.28;;
47481;SDS011;33219;47.410;9.730;2023-04-01T07:25:58;0.37;;;0.20;;
47481;SDS011;33219;47.410;9.730;2023-04-01T07:28:32;0.20;;;0.10;;
47481;SDS011;33219;47.410;9.730;2023-04-01T07:36:42;1.25;;;0.70;;
47481;SDS011;33219;47.410;9.730;2023-04-01T07:39:17;0.70;;;0.30;;
47481;SDS011;33219;47.410;9.730;2023-04-01T07:44:54;1.22;;;0.93;;
47481;SDS011;33219;47.410;9.730;2023-04-01T07:50:25;1.70;;;1.00;;
47481;SDS011;33219;47.410;9.730;2023-04-01T07:55:38;1.85;;;0.95;;
47481;SDS011;33219;47.410;9.730;2023-04-01T07:58:16;1.85;;;0.98;;
47481;SDS011;33219;47.410;9.730;2023-04-01T08:01:13;1.15;;;0.55;;
47481;SDS011;33219;47.410;9.730;2023-04-01T08:04:00;2.05;;;0.82;;
47481;SDS011;33219;47.410;9.730;2023-04-01T08:06:47;2.83;;;0.98;;
47481;SDS011;33219;47.410;9.730;2023-04-01T08:12:09;1.72;;;0.82;;
47481;SDS011;33219;47.410;9.730;2023-04-01T08:14:48;2.35;;;0.72;;
47481;SDS011;33219;47.410;9.730;2023-04-01T08:17:20;1.75;;;0.72;;
47481;SDS011;33219;47.410;9.730;2023-04-01T08:19:56;1.30;;;0.90;;
47481;SDS011;33219;47.410;9.730;2023-04-01T08:22:33;1.12;;;0.80;;
47481;SDS011;33219;47.410;9.730;2023-04-01T08:25:00;3.50;;;1.25;;
47481;SDS011;33219;47.410;9.730;2023-04-01T08:30:04;2.65;;;0.80;;
47481;SDS011;33219;47.410;9.730;2023-04-01T08:32:37;2.33;;;0.82;;
47481;SDS011;33219;47.410;9.730;2023-04-01T08:35:09;1.77;;;0.80;;
47481;SDS011;33219;47.410;9.730;2023-04-01T08:37:39;2.60;;;1.00;;
47481;SDS011;33219;47.410;9.730;2023-04-01T08:43:03;0.90;;;0.68;;
47481;SDS011;33219;47.410;9.730;2023-04-01T08:51:16;1.37;;;0.80;;
47481;SDS011;33219;47.410;9.730;2023-04-01T08:56:30;1.02;;;0.80;;
47481;SDS011;33219;47.410;9.730;2023-04-01T09:04:35;1.75;;;0.82;;
47481;SDS011;33219;47.410;9.730;2023-04-01T09:07:31;2.40;;;0.82;;
47481;SDS011;33219;47.410;9.730;2023-04-01T09:18:37;1.70;;;1.00;;
47481;SDS011;33219;47.410;9.730;2023-04-01T09:37:21;0.57;;;0.50;;
47481;SDS011;33219;47.410;9.730;2023-04-01T09:45:49;1.85;;;0.72;;
47481;SDS011;33219;47.410;9.730;2023-04-01T09:51:05;1.02;;;0.75;;
47481;SDS011;33219;47.410;9.730;2023-04-01T10:04:46;1.20;;;0.88;;
47481;SDS011;33219;47.410;9.730;2023-04-01T10:18:13;1.82;;;0.70;;
47481;SDS011;33219;47.410;9.730;2023-04-01T10:23:52;1.85;;;0.90;;
47481;SDS011;33219;47.410;9.730;2023-04-01T10:38:11;3.15;;;1.80;;
47481;SDS011;33219;47.410;9.730;2023-04-01T10:46:29;1.30;;;1.10;;
47481;SDS011;33219;47.410;9.730;2023-04-01T10:56:48;0.78;;;0.78;;
47481;SDS011;33219;47.410;9.730;2023-04-01T11:21:46;1.17;;;0.75;;
47481;SDS011;33219;47.410;9.730;2023-04-01T11:24:19;1.95;;;1.00;;
47481;SDS011;33219;47.410;9.730;2023-04-01T11:29:35;1.95;;;0.70;;
47481;SDS011;33219;47.410;9.730;2023-04-01T11:32:28;2.12;;;0.70;;
47481;SDS011;33219;47.410;9.730;2023-04-01T11:35:02;1.07;;;0.70;;
47481;SDS011;33219;47.410;9.730;2023-04-01T11:55:58;1.52;;;0.70;;
47481;SDS011;33219;47.410;9.730;2023-04-01T12:03:33;1.17;;;0.70;;
47481;SDS011;33219;47.410;9.730;2023-04-01T12:09:10;2.90;;;0.70;;
47481;SDS011;33219;47.410;9.730;2023-04-01T12:14:50;1.07;;;0.80;;
47481;SDS011;33219;47.410;9.730;2023-04-01T12:41:58;0.65;;;0.42;;
47481;SDS011;33219;47.410;9.730;2023-04-01T12:52:44;0.68;;;0.55;;
47481;SDS011;33219;47.410;9.730;2023-04-01T12:57:59;3.30;;;1.65;;
47481;SDS011;33219;47.410;9.730;2023-04-01T13:14:14;2.17;;;1.30;;
47481;SDS011;33219;47.410;9.730;2023-04-01T13:16:49;1.92;;;1.10;;
47481;SDS011;33219;47.410;9.730;2023-04-01T13:22:20;3.65;;;1.00;;
47481;SDS011;33219;47.410;9.730;2023-04-01T13:25:00;3.80;;;1.10;;
47481;SDS011;33219;47.410;9.730;2023-04-01T13:27:44;2.40;;;1.40;;
47481;SDS011;33219;47.410;9.730;2023-04-01T13:30:25;1.98;;;1.32;;
47481;SDS011;33219;47.410;9.730;2023-04-01T13:41:29;0.98;;;0.57;;
47481;SDS011;33219;47.410;9.730;2023-04-01T13:44:15;2.17;;;0.70;;
47481;SDS011;33219;47.410;9.730;2023-04-01T13:52:22;0.30;;;0.30;;
47481;SDS011;33219;47.410;9.730;2023-04-01T13:57:52;0.95;;;0.50;;
47481;SDS011;33219;47.410;9.730;2023-04-01T14:00:32;0.57;;;0.42;;
47481;SDS011;33219;47.410;9.730;2023-04-01T14:06:02;0.70;;;0.50;;
47481;SDS011;33219;47.410;9.730;2023-04-01T14:08:51;1.85;;;0.50;;
47481;SDS011;33219;47.410;9.730;2023-04-01T14:14:41;1.87;;;0.70;;
47481;SDS011;33219;47.410;9.730;2023-04-01T14:19:08;2.55;;;1.12;;
47481;SDS011;33219;47.410;9.730;2023-04-01T14:32:47;1.50;;;0.80;;
47481;SDS011;33219;47.410;9.730;2023-04-01T14:40:58;1.15;;;0.65;;
47481;SDS011;33219;47.410;9.730;2023-04-01T14:49:04;1.47;;;0.90;;
47481;SDS011;33219;47.410;9.730;2023-04-01T14:57:15;1.10;;;0.78;;
47481;SDS011;33219;47.410;9.730;2023-04-01T15:00:01;1.07;;;0.80;;
47481;SDS011;33219;47.410;9.730;2023-04-01T15:02:43;2.15;;;0.70;;
47481;SDS011;33219;47.410;9.730;2023-04-01T15:08:21;1.60;;;0.90;;
47481;SDS011;33219;47.410;9.730;2023-04-01T15:10:53;2.08;;;1.30;;
47481;SDS011;33219;47.410;9.730;2023-04-01T15:13:29;1.57;;;1.12;;
47481;SDS011;33219;47.410;9.730;2023-04-01T15:29:28;2.10;;;0.80;;
47481;SDS011;33219;47.410;9.730;2023-04-01T15:37:29;2.37;;;0.80;;
47481;SDS011;33219;47.410;9.730;2023-04-01T15:43:03;1.60;;;0.70;;
47481;SDS011;33219;47.410;9.730;2023-04-01T15:45:31;1.20;;;0.90;;
47481;SDS011;33219;47.410;9.730;2023-04-01T15:56:45;2.15;;;1.00;;
47481;SDS011;33219;47.410;9.730;2023-04-01T15:59:16;1.02;;;0.80;;
47481;SDS011;33219;47.410;9.730;2023-04-01T16:07:10;1.17;;;0.50;;
47481;SDS011;33219;47.410;9.730;2023-04-01T16:21:27;1.77;;;0.90;;
47481;SDS011;33219;47.410;9.730;2023-04-01T16:24:15;1.07;;;0.78;;
47481;SDS011;33219;47.410;9.730;2023-04-01T16:27:03;1.70;;;1.10;;
47481;SDS011;33219;47.410;9.730;2023-04-01T16:32:53;2.58;;;1.62;;
47481;SDS011;33219;47.410;9.730;2023-04-01T16:38:19;3.02;;;1.50;;
47481;SDS011;33219;47.410;9.730;2023-04-01T16:41:15;3.87;;;2.50;;
47481;SDS011;33219;47.410;9.730;2023-04-01T16:43:47;3.10;;;2.20;;
47481;SDS011;33219;47.410;9.730;2023-04-01T16:51:47;6.17;;;3.52;;
47481;SDS011;33219;47.410;9.730;2023-04-01T16:57:10;3.22;;;1.60;;
47481;SDS011;33219;47.410;9.730;2023-04-01T17:02:13;4.50;;;3.00;;
47481;SDS011;33219;47.410;9.730;2023-04-01T17:04:44;8.95;;;4.83;;
47481;SDS011;33219;47.410;9.730;2023-04-01T17:15:43;1.32;;;1.10;;
47481;SDS011;33219;47.410;9.730;2023-04-01T17:18:39;1.87;;;1.15;;
47481;SDS011;33219;47.410;9.730;2023-04-01T17:24:11;1.10;;;0.80;;
47481;SDS011;33219;47.410;9.730;2023-04-01T17:29:49;1.98;;;0.90;;
47481;SDS011;33219;47.410;9.730;2023-04-01T17:32:27;1.62;;;1.00;;
47481;SDS011;33219;47.410;9.730;2023-04-01T17:35:14;1.80;;;1.00;;
47481;SDS011;33219;47.410;9.730;2023-04-01T17:37:50;1.65;;;0.90;;
47481;SDS011;33219;47.410;9.730;2023-04-01T17:40:37;1.10;;;0.90;;
47481;SDS011;33219;47.410;9.730;2023-04-01T17:45:57;1.65;;;0.93;;
47481;SDS011;33219;47.410;9.730;2023-04-01T17:51:24;1.82;;;1.10;;
47481;SDS011;33219;47.410;9.730;2023-04-01T17:57:06;1.62;;;1.00;;
47481;SDS011;33219;47.410;9.730;2023-04-01T18:02:22;1.70;;;1.10;;
47481;SDS011;33219;47.410;9.730;2023-04-01T18:05:03;1.90;;;1.10;;
47481;SDS011;33219;47.410;9.730;2023-04-01T18:10:46;2.25;;;1.20;;
47481;SDS011;33219;47.410;9.730;2023-04-01T18:13:40;1.98;;;1.20;;
47481;SDS011;33219;47.410;9.730;2023-04-01T18:16:18;1.50;;;1.10;;
47481;SDS011;33219;47.410;9.730;2023-04-01T18:19:13;1.62;;;1.17;;
47481;SDS011;33219;47.410;9.730;2023-04-01T18:27:06;2.95;;;1.67;;
47481;SDS011;33219;47.410;9.730;2023-04-01T18:32:26;4.95;;;2.10;;
47481;SDS011;33219;47.410;9.730;2023-04-01T18:38:15;3.47;;;1.80;;
47481;SDS011;33219;47.410;9.730;2023-04-01T18:40:48;4.62;;;1.80;;
47481;SDS011;33219;47.410;9.730;2023-04-01T18:46:12;4.00;;;2.20;;
47481;SDS011;33219;47.410;9.730;2023-04-01T18:51:20;4.00;;;2.60;;
47481;SDS011;33219;47.410;9.730;2023-04-01T18:53:55;8.48;;;5.17;;
47481;SDS011;33219;47.410;9.730;2023-04-01T19:02:00;13.78;;;8.60;;
47481;SDS011;33219;47.410;9.730;2023-04-01T19:09:52;5.00;;;3.40;;
47481;SDS011;33219;47.410;9.730;2023-04-01T19:12:26;3.77;;;2.60;;
47481;SDS011;33219;47.410;9.730;2023-04-01T19:25:48;2.60;;;2.00;;
47481;SDS011;33219;47.410;9.730;2023-04-01T19:28:42;4.83;;;3.35;;
47481;SDS011;33219;47.410;9.730;2023-04-01T19:31:23;5.37;;;3.40;;
47481;SDS011;33219;47.410;9.730;2023-04-01T19:36:50;5.83;;;4.20;;
47481;SDS011;33219;47.410;9.730;2023-04-01T19:42:11;7.10;;;4.05;;
47481;SDS011;33219;47.410;9.730;2023-04-01T19:44:45;5.50;;;4.17;;
47481;SDS011;33219;47.410;9.730;2023-04-01T19:50:14;6.35;;;4.50;;
47481;SDS011;33219;47.410;9.730;2023-04-01T19:52:49;6.33;;;4.37;;
47481;SDS011;33219;47.410;9.730;2023-04-01T20:00:50;7.35;;;3.33;;
47481;SDS011;33219;47.410;9.730;2023-04-01T20:12:04;6.80;;;4.60;;
47481;SDS011;33219;47.410;9.730;2023-04-01T20:14:36;6.08;;;4.35;;
47481;SDS011;33219;47.410;9.730;2023-04-01T20:17:14;8.18;;;4.60;;
47481;SDS011;33219;47.410;9.730;2023-04-01T20:19:44;6.20;;;3.95;;
47481;SDS011;33219;47.410;9.730;2023-04-01T20:22:34;5.40;;;3.35;;
47481;SDS011;33219;47.410;9.730;2023-04-01T20:25:24;4.85;;;3.20;;
47481;SDS011;33219;47.410;9.730;2023-04-01T20:33:45;6.92;;;4.53;;
47481;SDS011;33219;47.410;9.730;2023-04-01T20:45:23;6.58;;;3.35;;
47481;SDS011;33219;47.410;9.730;2023-04-01T20:47:58;4.70;;;3.15;;
47481;SDS011;33219;47.410;9.730;2023-04-01T20:50:34;6.03;;;3.40;;
47481;SDS011;33219;47.410;9.730;2023-04-01T20:53:05;5.90;;;3.00;;
47481;SDS011;33219;47.410;9.730;2023-04-01T21:09:52;5.58;;;4.00;;
47481;SDS011;33219;47.410;9.730;2023-04-01T21:12:26;5.53;;;3.10;;
47481;SDS011;33219;47.410;9.730;2023-04-01T21:23:13;5.25;;;2.90;;
47481;SDS011;33219;47.410;9.730;2023-04-01T21:28:38;5.03;;;3.42;;
47481;SDS011;33219;47.410;9.730;2023-04-01T21:36:49;6.40;;;3.98;;
47481;SDS011;33219;47.410;9.730;2023-04-01T21:47:35;4.83;;;3.87;;
47481;SDS011;33219;47.410;9.730;2023-04-01T21:58:48;3.05;;;2.20;;
47481;SDS011;33219;47.410;9.730;2023-04-01T22:07:17;3.75;;;2.35;;
47481;SDS011;33219;47.410;9.730;2023-04-01T22:12:32;5.03;;;3.35;;
47481;SDS011;33219;47.410;9.730;2023-04-01T22:17:59;6.60;;;3.33;;
47481;SDS011;33219;47.410;9.730;2023-04-01T22:26:09;4.58;;;3.20;;
47481;SDS011;33219;47.410;9.730;2023-04-01T22:31:58;4.45;;;2.80;;
47481;SDS011;33219;47.410;9.730;2023-04-01T22:34:34;4.92;;;2.95;;
47481;SDS011;33219;47.410;9.730;2023-04-01T22:37:58;4.58;;;2.92;;
47481;SDS011;33219;47.410;9.730;2023-04-01T22:40:00;3.92;;;2.50;;
47481;SDS011;33219;47.410;9.730;2023-04-01T22:42:35;4.83;;;2.70;;
47481;SDS011;33219;47.410;9.730;2023-04-01T22:45:24;4.45;;;2.60;;
47481;SDS011;33219;47.410;9.730;2023-04-01T22:50:43;4.20;;;2.70;;
47481;SDS011;33219;47.410;9.730;2023-04-01T22:55:56;4.30;;;3.15;;
47481;SDS011;33219;47.410;9.730;2023-04-01T22:58:49;4.53;;;3.50;;
47481;SDS011;33219;47.410;9.730;2023-04-01T23:00:59;5.90;;;3.58;;
47481;SDS011;33219;47.410;9.730;2023-04-01T23:03:37;6.22;;;3.52;;
47481;SDS011;33219;47.410;9.730;2023-04-01T23:06:05;6.92;;;4.62;;
47481;SDS011;33219;47.410;9.730;2023-04-01T23:11:33;5.33;;;3.65;;
47481;SDS011;33219;47.410;9.730;2023-04-01T23:17:03;5.03;;;3.08;;
47481;SDS011;33219;47.410;9.730;2023-04-01T23:19:41;5.33;;;2.98;;
47481;SDS011;33219;47.410;9.730;2023-04-01T23:24:46;3.98;;;2.50;;
47481;SDS011;33219;47.410;9.730;2023-04-01T23:27:17;2.98;;;2.12;;
47481;SDS011;33219;47.410;9.730;2023-04-01T23:29:49;3.87;;;2.62;;
47481;SDS011;33219;47.410;9.730;2023-04-01T23:32:18;3.20;;;2.27;;
47481;SDS011;33219;47.410;9.730;2023-04-01T23:34:51;3.47;;;2.20;;
47481;SDS011;33219;47.410;9.730;2023-04-01T23:37:20;3.00;;;2.20;;
47481;SDS011;33219;47.410;9.730;2023-04-01T23:39:50;3.22;;;2.08;;
47481;SDS011;33219;47.410;9.730;2023-04-01T23:42:21;3.65;;;2.25;;
47481;SDS011;33219;47.410;9.730;2023-04-01T23:44:54;2.72;;;1.90;;
47481;SDS011;33219;47.410;9.730;2023-04-01T23:47:33;2.15;;;1.65;;
47481;SDS011;33219;47.410;9.730;2023-04-01T23:50:05;3.70;;;1.90;;
47481;SDS011;33219;47.410;9.730;2023-04-01T23:52:44;2.98;;;1.80;;
47481;SDS011;33219;47.410;9.730;2023-04-01T23:55:27;2.55;;;1.85;;
